Time;durP1;ratioP1;P1;durP2;ratioP2;P2;SDS_P1;SDS_P2;PMS_P1;PMS_P2;Temp;Humidity;BMP_temperature;BMP_pressure;BME280_temperature;BME280_humidity;BME280_pressure;Samples;Min_cycle;Max_cycle;Signal;HPM_P1;HPM_P2
2024/01/05 00:01:47;;;;;;;15.95;6.75;;;2.40;99.90;;;5.30;100.00;99703.31;4952442;28;20042;-79
2024/01/05 00:04:13;;;;;;;13.23;6.88;;;2.40;99.90;;;5.18;100.00;99699.53;4970144;28;20081;-79
2024/01/05 00:06:39;;;;;;;12.70;7.15;;;2.40;99.90;;;5.07;100.00;99697.44;4953215;29;20386;-79
2024/01/05 00:09:06;;;;;;;16.00;8.13;;;2.40;99.90;;;5.15;100.00;99683.72;4953614;28;20043;-80
2024/01/05 00:11:32;;;;;;;13.43;7.57;;;2.40;99.90;;;5.06;100.00;99685.78;4953405;28;20047;-79
2024/01/05 00:13:58;;;;;;;15.25;8.10;;;2.40;99.90;;;4.88;100.00;99678.25;4953017;28;20032;-80
2024/01/05 00:16:24;;;;;;;22.75;9.32;;;2.40;99.90;;;4.82;100.00;99681.78;4943714;29;20118;-79
2024/01/05 00:18:51;;;;;;;19.08;8.98;;;2.40;99.90;;;4.96;100.00;99688.88;4953675;28;20038;-80
2024/01/05 00:21:22;;;;;;;20.88;10.15;;;2.40;99.90;;;4.80;100.00;99678.44;4953396;28;20047;-79
2024/01/05 00:23:50;;;;;;;20.45;9.77;;;2.40;99.90;;;4.91;100.00;99675.13;4953196;28;20035;-80
2024/01/05 00:26:16;;;;;;;24.77;10.85;;;2.40;99.90;;;4.79;100.00;99671.38;4953608;28;20126;-80
2024/01/05 00:28:43;;;;;;;31.48;11.77;;;2.40;99.90;;;4.67;100.00;99661.13;4968671;28;20067;-79
2024/01/05 00:31:11;;;;;;;26.07;11.97;;;2.40;99.90;;;4.69;100.00;99659.06;4947481;29;20094;-79
2024/01/05 00:33:37;;;;;;;25.33;12.88;;;2.40;99.90;;;4.84;100.00;99645.38;4968599;28;20390;-79
2024/01/05 00:36:05;;;;;;;25.88;11.88;;;2.40;99.90;;;4.79;100.00;99655.16;4954294;28;20036;-79
2024/01/05 00:38:31;;;;;;;24.73;12.05;;;2.40;99.90;;;4.87;100.00;99654.97;4953515;29;20188;-79
2024/01/05 00:40:56;;;;;;;24.58;11.00;;;2.40;99.90;;;4.67;100.00;99644.91;4967911;28;20126;-80
2024/01/05 00:43:22;;;;;;;24.80;11.02;;;2.40;99.90;;;4.66;100.00;99645.13;4968368;28;20053;-79
2024/01/05 00:45:48;;;;;;;21.70;9.77;;;2.40;99.90;;;4.56;100.00;99645.50;4952679;28;20040;-80
2024/01/05 00:48:13;;;;;;;25.95;11.75;;;2.40;99.90;;;4.71;100.00;99643.47;4946885;29;20055;-79
2024/01/05 00:50:39;;;;;;;24.63;10.05;;;2.50;99.90;;;4.30;100.00;99637.06;4946817;28;20043;-80
2024/01/05 00:53:05;;;;;;;22.52;10.57;;;2.40;99.90;;;4.34;100.00;99637.53;4940915;29;20060;-80
2024/01/05 00:55:30;;;;;;;22.60;9.68;;;2.40;99.90;;;4.36;100.00;99626.50;4968216;28;20121;-79
2024/01/05 00:57:56;;;;;;;22.95;9.35;;;2.40;99.90;;;4.33;100.00;99641.25;4953255;29;20128;-79
2024/01/05 01:00:22;;;;;;;20.88;9.63;;;2.40;99.90;;;4.50;100.00;99647.16;4967190;28;20089;-79
2024/01/05 01:02:48;;;;;;;24.02;10.10;;;2.50;99.90;;;4.47;100.00;99636.75;4951677;28;20046;-79
2024/01/05 01:05:13;;;;;;;21.95;9.48;;;2.50;99.90;;;4.46;100.00;99630.50;4952568;28;20070;-79
2024/01/05 01:07:40;;;;;;;23.65;9.77;;;2.50;99.90;;;4.54;100.00;99637.59;4966622;28;20039;-79
2024/01/05 01:10:06;;;;;;;25.65;10.45;;;2.50;99.90;;;4.31;100.00;99632.53;4968343;28;20383;-79
2024/01/05 01:12:32;;;;;;;26.42;10.63;;;2.50;99.90;;;4.07;100.00;99637.38;4951931;29;20035;-79
2024/01/05 01:14:58;;;;;;;26.55;9.90;;;2.50;99.90;;;3.89;100.00;99624.41;4952800;28;20127;-79
2024/01/05 01:17:23;;;;;;;23.30;10.10;;;2.50;99.90;;;4.03;100.00;99625.31;4952061;28;20043;-78
2024/01/05 01:19:49;;;;;;;26.80;10.02;;;2.50;99.90;;;4.08;100.00;99620.16;4951935;28;20106;-78
2024/01/05 01:22:15;;;;;;;24.48;10.20;;;2.50;99.90;;;4.11;100.00;99616.19;4951241;28;20569;-79
2024/01/05 01:24:41;;;;;;;23.80;9.40;;;2.50;99.90;;;4.03;100.00;99614.53;4952463;28;20035;-79
2024/01/05 01:27:06;;;;;;;22.15;10.20;;;2.50;99.90;;;4.01;100.00;99624.69;4952112;28;20131;-78
2024/01/05 01:29:32;;;;;;;23.95;10.27;;;2.50;99.90;;;3.86;100.00;99614.00;4952574;28;20397;-79
2024/01/05 01:31:58;;;;;;;22.10;9.70;;;2.50;99.90;;;3.83;100.00;99617.09;4967305;28;20047;-79
2024/01/05 01:34:23;;;;;;;24.35;10.60;;;2.50;99.90;;;3.92;100.00;99612.38;4951848;28;20035;-79
2024/01/05 01:36:51;;;;;;;27.02;10.43;;;2.50;99.90;;;3.81;100.00;99606.50;4951102;29;20554;-79
2024/01/05 01:39:17;;;;;;;24.52;10.00;;;2.40;99.90;;;3.81;100.00;99590.31;4950511;29;20040;-78
2024/01/05 01:41:43;;;;;;;22.35;9.52;;;2.40;99.90;;;3.96;100.00;99594.75;4951920;28;20446;-78
2024/01/05 01:44:08;;;;;;;23.10;9.20;;;2.50;99.90;;;4.03;100.00;99593.75;4951288;29;20035;-78
2024/01/05 01:46:36;;;;;;;24.20;9.85;;;2.50;99.90;;;4.06;100.00;99592.53;4951277;28;20453;-78
2024/01/05 01:49:05;;;;;;;19.73;9.57;;;2.50;99.90;;;4.17;100.00;99596.53;4951754;28;20043;-78
2024/01/05 01:51:35;;;;;;;22.17;9.40;;;2.50;99.90;;;4.35;100.00;99598.69;4936738;28;20047;-78
2024/01/05 01:54:05;;;;;;;22.08;9.40;;;2.50;99.90;;;4.24;100.00;99599.22;4949597;28;20476;-78
2024/01/05 01:56:34;;;;;;;23.80;9.10;;;2.50;99.90;;;4.37;100.00;99599.31;4950962;28;20489;-79
2024/01/05 01:59:01;;;;;;;24.02;10.85;;;2.50;99.90;;;4.21;100.00;99589.69;4965853;28;20043;-79
2024/01/05 02:01:27;;;;;;;25.67;10.38;;;2.50;99.90;;;4.23;100.00;99586.78;4965168;28;20067;-78
2024/01/05 02:03:54;;;;;;;21.65;10.02;;;2.50;99.90;;;4.42;100.00;99575.22;4966175;28;20133;-78
2024/01/05 02:06:20;;;;;;;24.80;9.70;;;2.60;99.90;;;4.48;100.00;99573.59;4949993;28;20046;-79
2024/01/05 02:08:47;;;;;;;25.17;10.43;;;2.50;99.90;;;4.84;100.00;99563.50;4951666;28;20086;-78
2024/01/05 02:11:16;;;;;;;22.05;9.38;;;2.60;99.90;;;4.93;100.00;99551.44;4951750;28;20445;-79
2024/01/05 02:13:43;;;;;;;20.88;9.27;;;2.60;99.90;;;4.63;100.00;99565.31;4965468;28;20038;-78
2024/01/05 02:16:09;;;;;;;21.98;10.70;;;2.60;99.90;;;4.42;100.00;99552.78;4951212;28;20118;-78
2024/01/05 02:18:35;;;;;;;24.35;9.65;;;2.60;99.90;;;4.45;100.00;99565.91;4965941;28;20074;-78
2024/01/05 02:21:03;;;;;;;30.98;11.00;;;2.60;99.90;;;4.38;100.00;99557.75;4964448;28;20043;-78
2024/01/05 02:23:31;;;;;;;25.25;11.45;;;2.50;99.90;;;4.60;100.00;99544.94;4940361;29;20375;-78
2024/01/05 02:25:58;;;;;;;23.75;10.45;;;2.50;99.90;;;4.67;100.00;99539.53;4965905;28;20039;-78
2024/01/05 02:28:24;;;;;;;23.73;10.48;;;2.50;99.90;;;4.88;100.00;99543.13;4950893;29;20051;-78
2024/01/05 02:30:54;;;;;;;24.10;10.45;;;2.50;99.90;;;4.70;100.00;99535.63;4950933;28;20491;-78
2024/01/05 02:33:20;;;;;;;24.38;10.48;;;2.60;99.90;;;4.85;100.00;99525.44;4950313;28;20051;-78
2024/01/05 02:35:46;;;;;;;28.30;11.52;;;2.60;99.90;;;4.72;100.00;99523.53;4950332;28;20047;-78
2024/01/05 02:38:12;;;;;;;24.67;9.73;;;2.50;99.90;;;4.81;100.00;99517.97;4950774;28;20050;-78
2024/01/05 02:40:37;;;;;;;24.48;10.43;;;2.60;99.90;;;4.82;100.00;99508.81;4949859;28;20050;-78
2024/01/05 02:43:03;;;;;;;25.92;10.70;;;2.60;99.90;;;4.79;100.00;99506.53;4951715;28;20090;-78
2024/01/05 02:45:30;;;;;;;30.75;11.18;;;2.50;99.90;;;4.75;100.00;99492.59;4965921;28;20126;-78
2024/01/05 02:47:55;;;;;;;26.80;11.05;;;2.50;99.90;;;4.50;100.00;99493.19;4950331;28;20043;-78
2024/01/05 02:50:21;;;;;;;30.92;11.90;;;2.50;99.90;;;4.61;100.00;99497.16;4950591;29;20039;-78
2024/01/05 02:52:47;;;;;;;31.30;11.77;;;2.50;99.90;;;4.59;100.00;99493.81;4950105;29;20043;-78
2024/01/05 02:55:15;;;;;;;25.38;11.13;;;2.50;99.90;;;4.70;100.00;99490.50;4950154;28;20050;-78
2024/01/05 02:57:41;;;;;;;33.83;12.95;;;2.50;99.90;;;4.71;100.00;99478.66;4938200;28;20044;-78
2024/01/05 03:00:08;;;;;;;30.17;12.35;;;2.50;99.90;;;4.63;100.00;99483.41;4951193;28;20035;-78
2024/01/05 03:02:34;;;;;;;36.25;13.70;;;2.50;99.90;;;4.45;100.00;99476.75;4948458;29;20047;-78
2024/01/05 03:05:00;;;;;;;39.28;14.07;;;2.50;99.90;;;4.34;100.00;99471.94;4950093;29;20089;-77
2024/01/05 03:07:26;;;;;;;39.20;14.60;;;2.50;99.90;;;4.32;100.00;99464.06;4951227;28;20494;-78
2024/01/05 03:09:52;;;;;;;38.88;15.45;;;2.50;99.90;;;4.43;100.00;99463.44;4951438;28;20366;-78
2024/01/05 03:12:18;;;;;;;43.53;15.55;;;2.50;99.90;;;4.52;100.00;99468.69;4951489;28;20047;-78
2024/01/05 03:14:44;;;;;;;39.97;14.50;;;2.50;99.90;;;4.47;100.00;99464.69;4954319;28;20046;-78
2024/01/05 03:17:10;;;;;;;40.78;15.50;;;2.50;99.90;;;4.51;100.00;99457.03;4950935;28;20036;-78
2024/01/05 03:19:35;;;;;;;50.75;17.88;;;2.50;99.90;;;4.65;100.00;99457.06;4954833;28;20046;-78
2024/01/05 03:22:01;;;;;;;50.10;17.23;;;2.50;99.90;;;4.58;100.00;99452.44;4954390;28;20083;-78
2024/01/05 03:24:27;;;;;;;42.05;17.27;;;2.50;99.90;;;4.63;100.00;99465.34;4968523;28;20089;-76
2024/01/05 03:26:52;;;;;;;50.90;16.80;;;2.50;99.90;;;4.78;100.00;99464.34;4953776;28;20039;-76
2024/01/05 03:29:18;;;;;;;41.67;14.82;;;2.50;99.90;;;4.92;100.00;99471.38;4954154;28;20047;-76
2024/01/05 03:31:45;;;;;;;40.63;15.77;;;2.50;99.90;;;4.67;100.00;99465.78;4954089;28;20043;-75
2024/01/05 03:34:12;;;;;;;45.50;15.63;;;2.50;99.90;;;4.92;100.00;99471.38;4953710;28;20054;-76
2024/01/05 03:36:38;;;;;;;44.83;16.30;;;2.60;99.90;;;5.02;100.00;99462.84;4954263;28;20309;-77
2024/01/05 03:39:07;;;;;;;35.63;13.32;;;2.60;99.90;;;5.12;100.00;99457.84;4940453;28;20058;-76
2024/01/05 03:41:33;;;;;;;35.35;13.88;;;2.60;99.90;;;5.09;100.00;99452.84;4954047;29;20051;-76
2024/01/05 03:43:58;;;;;;;33.33;12.93;;;2.60;99.90;;;5.18;100.00;99454.31;4952754;28;20043;-76
2024/01/05 03:46:24;;;;;;;31.05;12.57;;;2.60;99.90;;;5.00;100.00;99446.81;4953524;28;20043;-76
2024/01/05 03:48:50;;;;;;;29.63;12.30;;;2.60;99.90;;;4.62;100.00;99436.66;4952621;28;20386;-76
2024/01/05 03:51:16;;;;;;;26.60;11.45;;;2.70;99.90;;;4.69;100.00;99423.97;4945100;29;20086;-76
2024/01/05 03:53:41;;;;;;;26.33;11.00;;;2.70;99.90;;;4.79;100.00;99420.06;4967110;28;20047;-76
2024/01/05 03:56:08;;;;;;;28.10;11.63;;;2.60;99.90;;;4.80;100.00;99416.31;4954446;28;20066;-77
2024/01/05 03:58:34;;;;;;;26.15;11.60;;;2.70;99.90;;;4.83;100.00;99424.00;4953587;28;20390;-76
2024/01/05 04:01:03;;;;;;;27.50;11.32;;;2.60;99.90;;;4.72;100.00;99415.47;4968978;28;20039;-76
2024/01/05 04:03:29;;;;;;;27.15;11.35;;;2.60;99.90;;;4.62;100.00;99417.75;4958664;28;20035;-76
2024/01/05 04:05:56;;;;;;;31.73;11.07;;;2.60;99.90;;;4.57;100.00;99401.34;4953833;28;20367;-75
2024/01/05 04:08:22;;;;;;;27.95;11.38;;;2.60;99.90;;;4.70;100.00;99395.13;4963993;28;20043;-76
2024/01/05 04:10:48;;;;;;;31.33;12.23;;;2.60;99.90;;;4.67;100.00;99399.06;4953180;29;20035;-76
2024/01/05 04:13:14;;;;;;;26.38;11.65;;;2.60;99.90;;;4.66;100.00;99388.47;4953587;28;20051;-76
2024/01/05 04:15:40;;;;;;;27.98;12.32;;;2.60;99.90;;;4.70;100.00;99395.13;4953070;28;20034;-76
2024/01/05 04:18:06;;;;;;;29.67;12.10;;;2.60;99.90;;;4.52;100.00;99385.75;4952849;28;20407;-76
2024/01/05 04:20:32;;;;;;;29.23;11.90;;;2.60;99.90;;;4.52;100.00;99384.94;4953331;28;20466;-76
2024/01/05 04:22:59;;;;;;;35.13;12.77;;;2.60;99.90;;;4.17;100.00;99385.94;4952554;28;20032;-76
2024/01/05 04:25:25;;;;;;;29.80;11.82;;;2.60;99.90;;;4.17;100.00;99378.66;4967988;28;20058;-76
2024/01/05 04:27:52;;;;;;;29.23;12.68;;;2.60;99.90;;;4.29;100.00;99378.06;4953207;28;20058;-76
2024/01/05 04:30:20;;;;;;;32.50;13.32;;;2.60;99.90;;;4.41;100.00;99372.88;4953306;29;20062;-76
2024/01/05 04:32:46;;;;;;;31.23;13.70;;;2.50;99.90;;;4.40;100.00;99374.75;4953513;28;20062;-76
2024/01/05 04:35:12;;;;;;;40.05;14.80;;;2.60;99.90;;;4.21;100.00;99378.25;4952104;28;20039;-77
2024/01/05 04:37:38;;;;;;;36.92;14.93;;;2.60;99.90;;;4.30;100.00;99366.25;4951253;29;20070;-76
2024/01/05 04:40:06;;;;;;;39.53;15.65;;;2.60;99.90;;;4.31;100.00;99359.78;4952947;28;20031;-76
2024/01/05 04:42:32;;;;;;;39.83;14.65;;;2.60;99.90;;;4.17;100.00;99351.69;4947589;28;20518;-76
2024/01/05 04:44:58;;;;;;;36.33;13.93;;;2.60;99.90;;;4.28;100.00;99360.22;4952204;29;20078;-77
2024/01/05 04:47:24;;;;;;;38.25;15.00;;;2.60;99.90;;;4.32;100.00;99358.75;4951933;29;20071;-77
2024/01/05 04:49:50;;;;;;;38.97;15.40;;;2.60;99.90;;;4.27;100.00;99353.16;4952682;28;20031;-76
2024/01/05 04:52:15;;;;;;;37.65;15.57;;;2.60;99.90;;;4.18;100.00;99347.13;4951540;28;20047;-76
2024/01/05 04:54:41;;;;;;;38.55;16.20;;;2.60;99.90;;;4.07;100.00;99343.16;4952286;28;20035;-76
2024/01/05 04:57:07;;;;;;;35.92;14.65;;;2.60;99.90;;;4.36;100.00;99343.78;4952576;28;20044;-76
2024/01/05 04:59:32;;;;;;;44.90;16.83;;;2.60;99.90;;;4.01;100.00;99330.50;4953010;28;20039;-76
2024/01/05 05:01:59;;;;;;;46.58;17.60;;;2.60;99.90;;;4.05;100.00;99339.84;4951590;28;20043;-76
2024/01/05 05:04:24;;;;;;;44.03;16.90;;;2.60;99.90;;;3.84;100.00;99336.28;4952957;28;20055;-76
2024/01/05 05:06:50;;;;;;;48.97;18.42;;;2.60;99.90;;;3.86;100.00;99333.38;4967206;28;20084;-76
2024/01/05 05:09:16;;;;;;;51.22;18.60;;;2.60;99.90;;;3.77;100.00;99324.66;4952649;28;20089;-76
2024/01/05 05:11:42;;;;;;;49.60;19.02;;;2.60;99.90;;;3.82;100.00;99315.91;4967711;28;20046;-76
2024/01/05 05:14:08;;;;;;;52.53;20.52;;;2.60;99.90;;;3.89;100.00;99317.59;4966760;28;20031;-76
2024/01/05 05:16:35;;;;;;;47.85;18.58;;;2.60;99.90;;;3.76;100.00;99319.44;4947956;29;20069;-76
2024/01/05 05:19:01;;;;;;;44.17;16.47;;;2.60;99.90;;;3.77;100.00;99311.16;4950711;29;20023;-76
2024/01/05 05:21:28;;;;;;;49.28;18.58;;;2.50;99.90;;;3.96;100.00;99317.63;4953120;28;20409;-76
2024/01/05 05:23:55;;;;;;;49.78;18.27;;;2.60;99.90;;;4.05;100.00;99317.41;4951220;28;20032;-76
2024/01/05 05:26:21;;;;;;;48.70;18.10;;;2.60;99.90;;;3.91;100.00;99313.88;4952304;28;20054;-76
2024/01/05 05:28:47;;;;;;;49.47;18.92;;;2.60;99.90;;;3.93;100.00;99311.78;4952347;28;20305;-77
2024/01/05 05:31:13;;;;;;;51.05;19.10;;;2.60;99.90;;;3.74;100.00;99319.66;4950444;28;20101;-77
2024/01/05 05:33:38;;;;;;;52.75;17.85;;;2.60;99.90;;;3.79;100.00;99322.56;4951692;28;20403;-76
2024/01/05 05:36:04;;;;;;;50.60;18.67;;;2.70;99.90;;;3.85;100.00;99327.16;4967032;28;20035;-76
2024/01/05 05:38:31;;;;;;;47.13;18.10;;;2.60;99.90;;;4.08;100.00;99320.53;4951039;28;20035;-76
2024/01/05 05:40:56;;;;;;;52.88;17.95;;;2.60;99.90;;;3.95;100.00;99312.41;4950099;28;20046;-76
2024/01/05 05:43:22;;;;;;;51.15;17.58;;;2.70;99.90;;;4.01;100.00;99314.31;4950929;28;20386;-76
2024/01/05 05:45:48;;;;;;;45.10;17.38;;;2.70;99.90;;;4.03;100.00;99321.13;4946253;28;20039;-77
2024/01/05 05:48:14;;;;;;;46.55;17.33;;;2.70;99.90;;;4.07;100.00;99326.13;4963998;28;20039;-77
2024/01/05 05:50:39;;;;;;;46.42;17.55;;;2.70;99.90;;;4.08;100.00;99320.53;4966868;28;20039;-77
2024/01/05 05:53:05;;;;;;;48.97;17.48;;;2.70;99.90;;;4.07;100.00;99324.28;4951653;28;21526;-77
2024/01/05 05:55:31;;;;;;;50.78;17.77;;;2.70;99.90;;;4.19;100.00;99319.09;4950818;29;20375;-77
2024/01/05 05:57:57;;;;;;;50.38;16.90;;;2.70;99.90;;;4.03;100.00;99299.56;4965868;28;20089;-77
2024/01/05 06:00:25;;;;;;;52.78;18.08;;;2.80;99.90;;;4.30;100.00;99320.34;4964816;28;20031;-77
2024/01/05 06:02:50;;;;;;;47.88;16.67;;;2.80;99.90;;;4.21;100.00;99311.59;4951919;28;20483;-77
2024/01/05 06:05:16;;;;;;;57.90;18.98;;;2.80;99.90;;;4.26;100.00;99321.78;4951028;28;20039;-76
2024/01/05 06:07:42;;;;;;;51.38;18.17;;;2.80;99.90;;;4.33;100.00;99317.22;4950818;28;20044;-77
2024/01/05 06:10:08;;;;;;;55.08;18.55;;;2.80;99.90;;;4.41;100.00;99319.69;4952353;28;20039;-78
2024/01/05 06:12:34;;;;;;;52.78;18.40;;;2.90;99.90;;;4.30;100.00;99301.44;4948238;28;20061;-78
2024/01/05 06:14:59;;;;;;;54.83;18.77;;;2.90;99.90;;;4.32;100.00;99312.84;4950532;28;20035;-78
2024/01/05 06:17:25;;;;;;;53.30;19.83;;;2.90;99.90;;;4.22;100.00;99317.81;4950383;28;20031;-77
2024/01/05 06:19:51;;;;;;;47.72;17.27;;;2.90;99.90;;;4.34;100.00;99308.06;4949241;29;20082;-78
2024/01/05 06:22:17;;;;;;;47.13;16.10;;;2.90;99.90;;;4.44;100.00;99296.84;4950548;28;20434;-78
2024/01/05 06:24:44;;;;;;;54.78;19.45;;;2.90;99.90;;;4.50;100.00;99320.31;4950117;28;20086;-78
2024/01/05 06:27:11;;;;;;;52.20;17.77;;;3.00;99.90;;;4.44;100.00;99310.34;4951159;28;20499;-78
2024/01/05 06:29:37;;;;;;;50.70;17.13;;;2.90;99.90;;;4.29;100.00;99321.38;4948844;28;20031;-78
2024/01/05 06:32:03;;;;;;;48.13;17.08;;;3.00;99.90;;;4.46;100.00;99324.47;4949957;28;20191;-78
2024/01/05 06:34:29;;;;;;;47.50;16.05;;;3.00;99.90;;;4.42;100.00;99340.25;4950377;28;20046;-78
2024/01/05 06:36:55;;;;;;;48.22;18.15;;;3.00;99.90;;;4.42;100.00;99315.94;4944800;28;20035;-79
2024/01/05 06:39:21;;;;;;;47.72;16.33;;;3.00;99.90;;;4.43;100.00;99323.00;4951544;28;20086;-79
2024/01/05 06:41:47;;;;;;;44.20;17.00;;;3.10;99.90;;;4.40;100.00;99322.63;4950469;28;20031;-79
2024/01/05 06:44:12;;;;;;;50.55;16.35;;;3.10;99.90;;;4.49;100.00;99317.81;4950717;28;20386;-79
2024/01/05 06:46:38;;;;;;;48.20;17.30;;;3.10;99.90;;;4.58;100.00;99313.88;4947588;28;20043;-80
2024/01/05 06:49:04;;;;;;;47.20;16.40;;;3.10;99.90;;;4.59;100.00;99304.72;4947678;29;20039;-79
2024/01/05 06:51:39;;;;;;;46.92;17.48;;;3.10;99.90;;;4.85;100.00;99278.69;4949950;28;20046;-79
2024/01/05 06:54:06;;;;;;;49.03;17.80;;;3.20;99.90;;;4.61;100.00;99270.22;4951195;28;20043;-80
2024/01/05 06:56:32;;;;;;;45.38;15.13;;;3.20;99.90;;;4.82;100.00;99281.81;4958176;28;20043;-81
2024/01/05 06:59:01;;;;;;;46.55;16.05;;;3.20;99.90;;;4.79;100.00;99276.84;4950074;28;20387;-81
2024/01/05 07:01:27;;;;;;;49.47;16.30;;;3.20;99.90;;;4.43;100.00;99289.78;4950099;28;20427;-80
2024/01/05 07:03:53;;;;;;;49.58;17.15;;;3.20;99.90;;;4.55;100.00;99279.19;4950244;28;20027;-79
2024/01/05 07:06:19;;;;;;;48.22;15.68;;;3.20;99.90;;;4.40;100.00;99288.31;4950768;28;20368;-80
2024/01/05 07:08:44;;;;;;;49.25;16.42;;;3.20;99.90;;;4.15;100.00;99261.97;4950463;28;20047;-77
2024/01/05 07:11:22;;;;;;;48.70;16.38;;;3.20;99.90;;;4.41;100.00;99271.09;4963376;28;20054;-78
2024/01/05 07:13:49;;;;;;;41.05;14.35;;;3.20;99.90;;;4.50;100.00;99273.56;4947021;29;20035;-78
2024/01/05 07:16:20;;;;;;;41.50;13.52;;;3.20;99.90;;;4.53;100.00;99273.16;4950171;28;20054;-78
2024/01/05 07:18:48;;;;;;;40.35;14.88;;;3.20;99.90;;;4.38;100.00;99266.09;4950085;28;20448;-78
2024/01/05 07:21:15;;;;;;;40.15;14.50;;;3.20;99.90;;;4.67;100.00;99269.38;4951323;28;20046;-78
2024/01/05 07:23:42;;;;;;;36.55;14.30;;;3.30;99.90;;;4.48;100.00;99262.97;4951064;28;20039;-78
2024/01/05 07:26:09;;;;;;;39.25;14.60;;;3.30;99.90;;;4.42;100.00;99264.63;4950954;28;20160;-78
2024/01/05 07:28:37;;;;;;;36.22;13.88;;;3.20;99.90;;;4.52;100.00;99258.00;4950355;28;20119;-78
2024/01/05 07:31:08;;;;;;;37.15;13.23;;;3.30;99.90;;;4.59;100.00;99253.41;4950465;28;20486;-78
2024/01/05 07:33:34;;;;;;;38.67;13.98;;;3.30;99.90;;;4.39;100.00;99253.44;4949707;28;20360;-79
2024/01/05 07:36:04;;;;;;;36.78;13.45;;;3.30;99.90;;;4.55;100.00;99250.28;4966226;28;20107;-77
2024/01/05 07:38:33;;;;;;;44.00;14.65;;;3.30;99.90;;;4.58;100.00;99249.84;4946006;29;20490;-77
2024/01/05 07:40:58;;;;;;;44.25;16.27;;;3.30;99.90;;;4.61;100.00;99245.91;4952216;28;20036;-77
2024/01/05 07:43:25;;;;;;;52.42;17.55;;;3.40;99.90;;;4.53;100.00;99238.03;4950111;28;20042;-78
2024/01/05 07:45:51;;;;;;;46.50;16.27;;;3.40;99.90;;;4.82;100.00;99244.78;4964684;28;20067;-79
2024/01/05 07:48:17;;;;;;;43.38;16.70;;;3.40;99.90;;;4.59;100.00;99239.88;4950941;28;20039;-77
2024/01/05 07:50:43;;;;;;;44.95;16.02;;;3.40;99.90;;;4.63;100.00;99230.31;4949838;28;20410;-79
2024/01/05 07:53:08;;;;;;;44.97;16.80;;;3.40;99.90;;;4.52;100.00;99234.50;4965125;28;20047;-78
2024/01/05 07:55:35;;;;;;;48.03;16.02;;;3.40;99.90;;;4.36;100.00;99235.78;4927295;29;20035;-78
2024/01/05 07:58:00;;;;;;;40.38;14.82;;;3.40;99.90;;;4.27;100.00;99234.34;4951605;28;20035;-78
2024/01/05 08:00:26;;;;;;;44.35;15.68;;;3.40;99.90;;;4.39;100.00;99231.84;4949745;28;20042;-78
2024/01/05 08:02:52;;;;;;;43.22;15.32;;;3.40;99.90;;;4.34;100.00;99232.47;4953756;29;20106;-81
2024/01/05 08:05:18;;;;;;;44.67;17.40;;;3.40;99.90;;;4.49;100.00;99232.22;4935130;28;20040;-79
2024/01/05 08:07:44;;;;;;;40.72;15.95;;;3.40;99.90;;;4.42;100.00;99218.72;4954347;28;20085;-79
2024/01/05 08:10:11;;;;;;;41.30;15.98;;;3.40;99.90;;;4.42;100.00;99224.13;4954255;28;20057;-78
2024/01/05 08:12:36;;;;;;;42.67;16.02;;;3.40;99.90;;;4.37;100.00;99221.25;4953286;29;20035;-78
2024/01/05 08:15:03;;;;;;;41.17;14.63;;;3.40;99.90;;;4.52;100.00;99217.47;4953329;28;20505;-79
2024/01/05 08:17:29;;;;;;;41.70;15.23;;;3.40;99.90;;;4.43;100.00;99212.28;4954155;28;20517;-79
2024/01/05 08:19:54;;;;;;;42.28;15.15;;;3.40;99.90;;;4.77;100.00;99197.84;4960760;28;20047;-80
2024/01/05 08:22:20;;;;;;;46.35;15.73;;;3.40;99.90;;;4.90;100.00;99212.13;4950859;28;20031;-79
2024/01/05 08:24:46;;;;;;;41.75;16.45;;;3.50;99.90;;;4.89;100.00;99217.75;4952191;29;20047;-79
2024/01/05 08:27:12;;;;;;;38.30;14.85;;;3.50;99.90;;;4.84;100.00;99220.28;4953040;28;20039;-80
2024/01/05 08:29:37;;;;;;;43.08;15.52;;;3.50;99.90;;;4.90;100.00;99225.63;4969094;28;20078;-79
2024/01/05 08:32:04;;;;;;;47.28;16.75;;;3.50;99.90;;;4.87;100.00;99226.06;4952436;29;20027;-82
2024/01/05 08:34:30;;;;;;;46.80;16.35;;;3.50;99.90;;;4.94;100.00;99236.84;4952548;29;20065;-80
2024/01/05 08:36:55;;;;;;;50.10;18.38;;;3.50;99.90;;;4.93;100.00;99237.09;4968065;28;20036;-78
2024/01/05 08:39:21;;;;;;;41.35;16.83;;;3.50;99.90;;;4.98;100.00;99238.06;4967485;28;20035;-78
2024/01/05 08:41:47;;;;;;;46.22;17.65;;;3.60;99.90;;;4.85;100.00;99246.25;4952677;28;20496;-78
2024/01/05 08:44:14;;;;;;;37.00;14.77;;;3.50;99.90;;;5.10;100.00;99246.34;4954533;28;20035;-78
2024/01/05 08:46:41;;;;;;;34.65;14.13;;;3.50;99.90;;;4.99;100.00;99255.94;4969783;28;20046;-78
2024/01/05 08:49:07;;;;;;;32.25;12.75;;;3.50;99.90;;;4.90;100.00;99258.06;4953118;28;20031;-78
2024/01/05 08:51:32;;;;;;;37.75;14.55;;;3.50;99.90;;;4.99;100.00;99250.53;4953727;28;20498;-78
2024/01/05 08:54:01;;;;;;;37.20;13.68;;;3.60;99.90;;;5.06;100.00;99249.72;4951173;29;20043;-78
2024/01/05 08:56:27;;;;;;;33.97;13.88;;;3.60;99.90;;;5.07;100.00;99249.47;4961581;28;20479;-78
2024/01/05 08:58:53;;;;;;;30.38;12.57;;;3.60;99.90;;;5.20;100.00;99251.28;4952942;28;20039;-79
2024/01/05 09:01:19;;;;;;;35.08;12.90;;;3.70;99.90;;;5.02;100.00;99255.53;4952650;28;20088;-78
2024/01/05 09:03:45;;;;;;;30.63;12.32;;;3.70;99.90;;;5.00;100.00;99265.72;4967704;28;20073;-77
2024/01/05 09:06:11;;;;;;;33.35;13.48;;;3.60;99.90;;;4.92;100.00;99263.25;4952123;28;20051;-76
2024/01/05 09:08:37;;;;;;;33.40;13.82;;;3.70;99.90;;;4.95;100.00;99268.25;4953723;28;20047;-77
2024/01/05 09:11:04;;;;;;;37.10;13.93;;;3.60;99.90;;;5.12;100.00;99256.94;4952909;28;20367;-77
2024/01/05 09:13:30;;;;;;;32.33;13.60;;;3.60;99.90;;;5.20;100.00;99254.00;4948420;28;20046;-77
2024/01/05 09:15:56;;;;;;;35.38;14.10;;;3.60;99.90;;;5.26;100.00;99253.13;4951052;28;20475;-78
2024/01/05 09:18:21;;;;;;;34.28;12.88;;;3.70;99.90;;;5.11;100.00;99255.28;4952537;28;20183;-77
2024/01/05 09:20:47;;;;;;;33.53;12.95;;;3.70;99.90;;;5.35;100.00;99263.72;4967871;28;20032;-77
2024/01/05 09:23:13;;;;;;;28.50;13.02;;;3.70;99.90;;;5.16;100.00;99267.09;4951545;28;20069;-78
2024/01/05 09:25:40;;;;;;;30.55;12.82;;;3.70;99.90;;;5.14;100.00;99262.97;4941690;29;20098;-77
2024/01/05 09:28:06;;;;;;;30.20;12.45;;;3.70;99.90;;;5.31;100.00;99268.72;4966498;28;20083;-77
2024/01/05 09:30:32;;;;;;;32.63;13.05;;;3.80;99.90;;;5.18;100.00;99262.34;4952100;28;20032;-78
2024/01/05 09:32:58;;;;;;;31.77;13.43;;;3.80;99.90;;;5.35;100.00;99272.63;4952190;28;20620;-78
2024/01/05 09:35:25;;;;;;;30.08;12.57;;;3.80;99.90;;;5.24;100.00;99268.75;4952506;28;20042;-78
2024/01/05 09:37:52;;;;;;;30.45;12.63;;;3.80;99.90;;;5.30;100.00;99265.19;4952432;28;20043;-78
2024/01/05 09:40:17;;;;;;;31.67;12.52;;;3.80;99.90;;;5.11;100.00;99261.53;4951888;28;20451;-78
2024/01/05 09:42:54;;;;;;;30.42;12.52;;;3.80;99.90;;;5.11;100.00;99266.94;4952220;28;20041;-77
2024/01/05 09:45:22;;;;;;;29.25;11.88;;;3.90;99.90;;;5.08;100.00;99271.94;4949297;29;20039;-78
2024/01/05 09:47:50;;;;;;;27.92;12.10;;;3.90;99.90;;;5.31;100.00;99263.31;4951111;28;20027;-78
2024/01/05 09:50:17;;;;;;;26.35;12.15;;;3.90;99.90;;;5.35;100.00;99255.59;4951782;28;20130;-77
2024/01/05 09:52:44;;;;;;;28.15;11.95;;;4.00;99.90;;;5.25;100.00;99248.75;4951969;28;20180;-78
2024/01/05 09:55:11;;;;;;;27.60;11.40;;;4.00;99.90;;;5.15;100.00;99243.81;4951688;28;20104;-78
2024/01/05 09:57:42;;;;;;;26.83;11.20;;;4.00;99.90;;;5.20;100.00;99251.28;4952124;28;20043;-78
2024/01/05 10:00:12;;;;;;;27.02;10.98;;;4.00;99.90;;;5.40;100.00;99244.94;4951630;28;20039;-77
2024/01/05 10:02:46;;;;;;;23.67;10.75;;;4.00;99.90;;;5.25;100.00;99237.94;4961421;28;20487;-78
2024/01/05 10:05:11;;;;;;;22.08;10.18;;;4.00;99.90;;;5.16;100.00;99240.06;4966241;28;20058;-77
2024/01/05 10:07:45;;;;;;;26.08;10.85;;;4.00;99.90;;;5.26;100.00;99239.59;4951330;28;20057;-77
2024/01/05 10:10:12;;;;;;;26.77;12.07;;;4.00;99.90;;;5.45;100.00;99237.00;4963540;28;20050;-78